Time;durP1;ratioP1;P1;durP2;ratioP2;P2;SDS_P1;SDS_P2;PMS_P1;PMS_P2;Temp;Humidity;BMP_temperature;BMP_pressure;BME280_temperature;BME280_humidity;BME280_pressure;Samples;Min_cycle;Max_cycle;Signal;HPM_P1;HPM_P2
2023/02/25 00:00:18;;;;;;;15.50;7.50;;;;;;;11.02;89.16;99672.55;107986;1288;21991;-68
2023/02/25 00:02:44;;;;;;;17.00;8.10;;;;;;;11.09;87.86;99670.95;107931;1289;21988;-61
2023/02/25 00:05:10;;;;;;;15.00;8.60;;;;;;;10.92;91.20;99669.80;107964;1289;21986;-60
2023/02/25 00:07:50;;;;;;;15.00;8.00;;;;;;;10.93;90.90;99663.81;107849;1289;22015;-67
2023/02/25 00:10:17;;;;;;;16.20;7.50;;;;;;;11.01;89.35;99654.83;107818;1289;22001;-67
2023/02/25 00:12:43;;;;;;;20.30;8.60;;;;;;;11.03;89.62;99653.05;107872;1289;21996;-67
2023/02/25 00:15:09;;;;;;;14.60;7.80;;;;;;;11.05;89.24;99647.36;107915;1289;22026;-66
2023/02/25 00:17:38;;;;;;;16.90;8.00;;;;;;;11.10;88.14;99641.08;107828;1289;22005;-67
2023/02/25 00:20:08;;;;;;;19.60;8.50;;;;;;;11.05;89.19;99634.02;108022;1289;22013;-65
2023/02/25 00:22:38;;;;;;;19.60;9.20;;;;;;;11.02;90.26;99631.98;107971;1289;21999;-67
2023/02/25 00:25:05;;;;;;;17.90;8.40;;;;;;;11.07;88.95;99625.17;107816;1288;22556;-60
2023/02/25 00:27:30;;;;;;;19.70;8.70;;;;;;;11.17;87.17;99625.64;107994;1289;22053;-60
2023/02/25 00:29:56;;;;;;;15.40;8.00;;;;;;;11.14;87.54;99625.69;107986;1289;22006;-68
2023/02/25 00:32:22;;;;;;;15.00;8.50;;;;;;;11.15;87.41;99621.30;107963;1289;21992;-67
2023/02/25 00:34:49;;;;;;;19.00;9.10;;;;;;;11.07;89.16;99616.23;107966;1289;21998;-61
2023/02/25 00:37:15;;;;;;;15.20;8.40;;;;;;;10.99;90.63;99612.95;107965;1289;21999;-60
2023/02/25 00:39:42;;;;;;;17.80;8.30;;;;;;;11.09;88.88;99611.61;108018;1289;21997;-67
2023/02/25 00:42:12;;;;;;;18.00;8.60;;;;;;;11.05;89.94;99614.17;107904;1289;21990;-66
2023/02/25 00:44:43;;;;;;;18.30;8.30;;;;;;;11.03;90.05;99614.05;107949;1289;22255;-68
2023/02/25 00:47:09;;;;;;;15.20;8.50;;;;;;;11.06;89.75;99611.15;107979;1289;21990;-61
2023/02/25 00:49:35;;;;;;;21.00;9.00;;;;;;;11.07;89.99;99605.52;107796;1290;21981;-67
2023/02/25 00:52:01;;;;;;;15.90;8.30;;;;;;;11.13;88.73;99600.80;107894;1289;22036;-68
2023/02/25 00:54:27;;;;;;;20.10;8.30;;;;;;;11.14;88.58;99595.85;108007;1289;22455;-60
2023/02/25 00:56:53;;;;;;;19.10;10.10;;;;;;;11.14;88.60;99599.55;107931;1282;21995;-67
2023/02/25 00:59:19;;;;;;;13.70;7.90;;;;;;;11.14;88.08;99598.83;107918;1289;22006;-63
2023/02/25 01:01:46;;;;;;;16.80;8.60;;;;;;;11.16;87.76;99600.54;107901;1289;21975;-60
2023/02/25 01:04:12;;;;;;;19.40;8.80;;;;;;;11.18;87.91;99596.98;107852;1289;21992;-62
2023/02/25 01:06:39;;;;;;;17.80;9.10;;;;;;;11.34;86.01;99588.63;107944;1289;21998;-67
2023/02/25 01:09:06;;;;;;;19.00;9.90;;;;;;;11.38;85.87;99583.79;107965;1289;21994;-67
2023/02/25 01:11:33;;;;;;;16.50;10.00;;;;;;;11.39;85.27;99583.94;108001;1289;21989;-61
2023/02/25 01:14:01;;;;;;;21.50;11.00;;;;;;;11.39;85.43;99580.43;107986;1289;22086;-68
2023/02/25 01:16:30;;;;;;;23.10;10.20;;;;;;;11.37;85.63;99579.23;107897;1289;22000;-67
2023/02/25 01:18:58;;;;;;;17.70;9.40;;;;;;;11.37;85.70;99576.96;107928;1289;21998;-67
2023/02/25 01:21:27;;;;;;;20.70;9.70;;;;;;;11.39;85.36;99574.80;108039;1288;22000;-60
2023/02/25 01:23:57;;;;;;;21.20;9.00;;;;;;;11.41;85.07;99569.82;107919;1289;22001;-60
2023/02/25 01:26:27;;;;;;;19.40;10.00;;;;;;;11.44;84.82;99561.66;107860;1289;22011;-67
2023/02/25 01:28:53;;;;;;;23.90;11.20;;;;;;;11.43;84.87;99556.23;107802;1289;21988;-68
2023/02/25 01:31:23;;;;;;;20.30;11.30;;;;;;;11.43;84.82;99557.65;107899;1289;22003;-68
2023/02/25 01:33:50;;;;;;;16.60;9.30;;;;;;;11.41;84.84;99556.65;107247;1289;1002663;-67
2023/02/25 01:36:16;;;;;;;20.50;10.60;;;;;;;11.42;84.51;99555.05;107819;1289;21980;-68
2023/02/25 01:38:42;;;;;;;17.60;8.90;;;;;;;11.41;84.28;99551.55;107906;1275;21999;-60
2023/02/25 01:41:08;;;;;;;19.60;9.60;;;;;;;11.42;84.04;99548.53;107964;1289;21998;-60
2023/02/25 01:43:34;;;;;;;20.50;9.40;;;;;;;11.41;83.79;99549.60;107847;1289;21993;-61
2023/02/25 01:46:00;;;;;;;17.40;9.50;;;;;;;11.39;83.96;99549.16;108017;1289;23995;-60
2023/02/25 01:48:28;;;;;;;19.90;10.40;;;;;;;11.31;85.20;99547.27;107956;1289;21994;-67
2023/02/25 01:51:04;;;;;;;18.50;10.20;;;;;;;11.31;84.68;99542.88;107853;1289;21999;-67
2023/02/25 01:53:33;;;;;;;16.40;9.30;;;;;;;11.35;83.62;99542.77;108019;1289;22004;-60
2023/02/25 01:56:00;;;;;;;22.20;10.00;;;;;;;11.35;83.33;99543.46;108006;1289;22000;-67
2023/02/25 01:58:25;;;;;;;22.30;11.20;;;;;;;11.32;83.92;99540.39;107821;1289;21993;-67
2023/02/25 02:00:54;;;;;;;21.60;10.70;;;;;;;11.27;84.52;99538.76;107867;1289;21977;-62
2023/02/25 02:03:31;;;;;;;19.90;10.40;;;;;;;11.21;85.51;99533.15;107787;1289;21992;-67
2023/02/25 02:06:02;;;;;;;21.40;11.90;;;;;;;11.19;85.54;99525.15;108000;1284;21992;-60
2023/02/25 02:08:27;;;;;;;;;;;;;;;11.19;84.40;99516.52;107923;1289;21985;-60
2023/02/25 02:10:55;;;;;;;22.10;11.90;;;;;;;11.20;83.65;99515.81;107826;1289;21998;-60
2023/02/25 02:13:21;;;;;;;20.50;11.70;;;;;;;11.16;83.75;99519.59;107770;1290;21994;-60
2023/02/25 02:16:29;;;;;;;19.00;10.40;;;;;;;11.14;83.89;99520.33;107834;1289;22010;-67
2023/02/25 02:19:07;;;;;;;23.10;11.10;;;;;;;11.08;84.40;99524.89;107101;1289;1002772;-60
2023/02/25 02:21:33;;;;;;;24.70;10.90;;;;;;;11.07;84.39;99522.14;107976;1289;23938;-67
2023/02/25 02:24:08;;;;;;;20.00;11.00;;;;;;;11.03;84.53;99520.66;107999;1289;21990;-60
2023/02/25 02:26:49;;;;;;;18.20;11.80;;;;;;;11.05;83.94;99521.12;107922;1281;21995;-60
2023/02/25 02:29:33;;;;;;;;;;;;;;;11.09;83.72;99519.08;107986;1289;22213;-60
2023/02/25 02:32:02;;;;;;;23.40;13.30;;;;;;;11.09;83.20;99517.16;107876;1290;21995;-60
2023/02/25 02:35:04;;;;;;;19.60;11.10;;;;;;;11.07;83.06;99521.79;107852;1290;21994;-60
2023/02/25 02:37:40;;;;;;;21.40;11.70;;;;;;;11.02;83.79;99519.13;107796;1289;21996;-67
2023/02/25 02:40:29;;;;;;;25.00;13.60;;;;;;;11.02;83.80;99519.98;107748;1289;21995;-60
2023/02/25 02:43:10;;;;;;;22.00;13.20;;;;;;;11.00;84.33;99522.31;107916;1289;22012;-60
2023/02/25 02:45:38;;;;;;;21.20;12.80;;;;;;;10.87;87.37;99515.11;107914;1289;21994;-67
2023/02/25 02:48:07;;;;;;;25.50;13.60;;;;;;;10.98;85.40;99511.85;107838;1289;22002;-67
2023/02/25 02:50:39;;;;;;;23.40;12.60;;;;;;;10.99;85.39;99511.30;107878;1289;21997;-60
2023/02/25 02:53:15;;;;;;;23.60;12.60;;;;;;;11.00;85.14;99503.73;107861;1289;22005;-60
2023/02/25 02:55:44;;;;;;;19.80;11.60;;;;;;;11.05;83.92;99500.41;107827;1289;22002;-59
2023/02/25 02:58:24;;;;;;;22.60;12.60;;;;;;;11.02;84.44;99498.57;107878;1289;23051;-60
2023/02/25 03:00:56;;;;;;;23.10;13.00;;;;;;;11.03;83.61;99504.52;107861;1289;21956;-67
2023/02/25 03:03:35;;;;;;;23.00;12.80;;;;;;;10.99;84.00;99501.65;107831;1289;21989;-60
2023/02/25 03:06:02;;;;;;;21.20;13.20;;;;;;;10.89;85.76;99498.58;107977;1289;22030;-67
2023/02/25 03:08:29;;;;;;;20.90;14.20;;;;;;;10.90;85.72;99501.73;108026;1289;22467;-60
2023/02/25 03:10:54;;;;;;;27.80;14.30;;;;;;;10.93;85.46;99504.80;107830;1289;22003;-67
2023/02/25 03:13:20;;;;;;;33.90;15.10;;;;;;;10.80;88.44;99501.81;108003;1276;22027;-60
2023/02/25 03:15:47;;;;;;;20.80;12.90;;;;;;;10.87;86.90;99504.42;107833;1289;22002;-60
2023/02/25 03:18:26;;;;;;;22.70;13.70;;;;;;;10.83;88.31;99504.02;107797;1289;22003;-59
2023/02/25 03:20:52;;;;;;;25.60;15.90;;;;;;;10.84;88.74;99498.73;107863;1289;22007;-68
2023/02/25 03:23:25;;;;;;;23.90;13.40;;;;;;;10.88;87.41;99499.31;107747;1289;21996;-67
2023/02/25 03:25:52;;;;;;;24.00;14.50;;;;;;;10.85;88.09;99501.14;107975;1289;21993;-67
2023/02/25 03:28:29;;;;;;;27.20;14.30;;;;;;;10.95;86.70;99504.38;107150;1289;1003185;-67
2023/02/25 03:30:57;;;;;;;21.60;12.30;;;;;;;10.93;87.13;99500.39;107951;1289;21999;-60
2023/02/25 03:34:04;;;;;;;25.20;13.40;;;;;;;10.98;86.11;99496.95;107885;1289;21993;-67
2023/02/25 03:36:35;;;;;;;18.50;12.50;;;;;;;11.05;84.84;99491.09;107879;1289;21997;-67
2023/02/25 03:39:21;;;;;;;23.30;13.80;;;;;;;10.92;86.29;99498.14;107856;1289;22018;-60
2023/02/25 03:41:50;;;;;;;24.30;14.10;;;;;;;11.01;85.24;99501.23;107926;1289;21998;-67
2023/02/25 03:44:20;;;;;;;27.10;15.10;;;;;;;11.01;85.36;99500.18;107856;1289;23661;-67
2023/02/25 03:46:46;;;;;;;18.80;12.40;;;;;;;11.01;85.03;99498.96;107914;1289;22461;-67
2023/02/25 03:49:15;;;;;;;28.00;13.20;;;;;;;11.07;84.09;99492.80;107819;1289;21993;-61
2023/02/25 03:51:40;;;;;;;24.10;13.50;;;;;;;11.12;83.63;99488.64;107890;1289;21995;-67
2023/02/25 03:54:06;;;;;;;22.80;12.90;;;;;;;11.06;84.59;99487.41;107717;1290;22848;-60
2023/02/25 03:56:42;;;;;;;25.60;14.20;;;;;;;11.04;84.31;99484.46;107852;1289;21999;-68
2023/02/25 03:59:08;;;;;;;24.50;14.30;;;;;;;11.04;83.95;99478.67;107910;1288;21993;-60
2023/02/25 04:01:35;;;;;;;25.50;14.80;;;;;;;11.03;83.93;99472.59;107810;1289;22065;-60
2023/02/25 04:04:00;;;;;;;25.80;13.70;;;;;;;10.89;85.33;99468.73;107648;1289;22000;-62
2023/02/25 04:06:26;;;;;;;23.90;13.90;;;;;;;10.93;83.90;99461.44;107860;1289;22097;-59
2023/02/25 04:08:53;;;;;;;21.00;13.10;;;;;;;10.92;83.40;99463.40;107844;1289;21992;-67
2023/02/25 04:11:19;;;;;;;24.60;14.40;;;;;;;10.92;82.60;99466.20;107881;1289;22001;-60
2023/02/25 04:13:44;;;;;;;25.00;14.80;;;;;;;10.91;82.39;99460.96;107821;1289;21998;-62
2023/02/25 04:16:12;;;;;;;25.10;13.10;;;;;;;10.93;81.53;99461.77;107718;1289;21993;-60
2023/02/25 04:18:40;;;;;;;28.40;14.80;;;;;;;10.95;81.39;99464.90;107871;1288;21989;-60
2023/02/25 04:21:07;;;;;;;24.20;13.30;;;;;;;10.94;81.54;99460.89;107915;1289;22319;-69
2023/02/25 04:23:34;;;;;;;20.80;13.20;;;;;;;10.92;82.24;99449.54;107968;1276;21976;-69
2023/02/25 04:25:59;;;;;;;24.20;15.70;;;;;;;10.91;82.84;99440.61;107897;1289;21999;-70
2023/02/25 04:28:27;;;;;;;26.60;15.80;;;;;;;10.84;84.46;99435.73;107898;1289;21996;-69
2023/02/25 04:30:53;;;;;;;26.70;16.30;;;;;;;10.86;84.01;99435.83;107651;1287;339059;-61
2023/02/25 04:33:19;;;;;;;32.00;16.20;;;;;;;10.89;83.48;99432.58;107880;1289;23633;-62
2023/02/25 04:35:45;;;;;;;28.10;15.80;;;;;;;10.92;82.97;99427.95;107858;1289;22086;-62
2023/02/25 04:38:13;;;;;;;26.30;15.80;;;;;;;10.90;83.40;99427.84;107874;1289;22000;-69
2023/02/25 04:40:39;;;;;;;26.40;15.70;;;;;;;10.83;84.26;99426.08;107880;1289;22005;-69
2023/02/25 04:43:08;;;;;;;24.90;15.80;;;;;;;10.81;84.49;99422.64;107885;1289;21989;-61
2023/02/25 04:45:34;;;;;;;25.30;15.90;;;;;;;10.76;85.04;99423.32;107925;1289;21998;-61
2023/02/25 04:48:00;;;;;;;24.00;14.70;;;;;;;10.82;83.82;99422.95;107843;1289;22004;-68
2023/02/25 04:50:26;;;;;;;21.70;14.10;;;;;;;10.85;83.07;99422.35;107877;1289;21998;-68
2023/02/25 04:52:51;;;;;;;24.20;14.10;;;;;;;10.87;82.98;99421.77;107825;1289;21990;-63
2023/02/25 04:55:17;;;;;;;24.90;15.40;;;;;;;10.90;82.36;99414.14;107819;1290;21991;-61
2023/02/25 04:57:43;;;;;;;27.80;15.10;;;;;;;10.86;82.24;99413.00;107898;1289;22004;-67
2023/02/25 05:00:22;;;;;;;28.50;16.00;;;;;;;10.75;82.97;99414.90;107906;1289;21988;-61
2023/02/25 05:02:48;;;;;;;25.40;14.90;;;;;;;10.66;83.33;99417.09;107995;1289;23719;-62
2023/02/25 05:05:14;;;;;;;24.40;14.80;;;;;;;10.58;83.31;99413.80;108037;1289;21987;-61
2023/02/25 05:07:40;;;;;;;25.60;14.70;;;;;;;10.51;82.92;99415.23;107963;1277;21991;-61
2023/02/25 05:10:07;;;;;;;27.20;15.70;;;;;;;10.42;83.85;99414.75;107850;1289;21992;-68
2023/02/25 05:12:33;;;;;;;29.90;16.30;;;;;;;10.31;86.09;99415.39;107943;1287;21999;-60
2023/02/25 05:14:59;;;;;;;25.00;15.60;;;;;;;10.34;86.06;99416.17;107892;1287;21984;-59
2023/02/25 05:17:26;;;;;;;28.00;16.80;;;;;;;10.33;86.93;99412.52;107877;1289;22008;-66
2023/02/25 05:19:52;;;;;;;25.20;15.30;;;;;;;10.31;87.57;99412.23;107863;1289;23663;-67
2023/02/25 05:22:21;;;;;;;28.70;15.90;;;;;;;10.34;87.39;99410.05;107850;1289;21990;-68
2023/02/25 05:24:47;;;;;;;22.10;15.60;;;;;;;10.36;87.04;99404.73;107875;1289;22003;-60
2023/02/25 05:27:15;;;;;;;24.50;15.20;;;;;;;10.41;86.05;99404.42;107836;1286;21996;-61
2023/02/25 05:29:41;;;;;;;32.80;17.10;;;;;;;10.39;87.00;99406.77;107883;1289;22043;-66
2023/02/25 05:32:06;;;;;;;30.40;16.60;;;;;;;10.38;87.54;99404.16;107943;1289;22001;-60
2023/02/25 05:34:33;;;;;;;25.30;15.80;;;;;;;10.41;86.78;99405.83;108001;1289;22000;-66
2023/02/25 05:36:58;;;;;;;30.30;16.20;;;;;;;10.41;86.96;99402.88;107959;1289;22030;-68
2023/02/25 05:39:24;;;;;;;30.10;16.10;;;;;;;10.43;86.47;99399.47;107768;1289;22004;-62
2023/02/25 05:41:50;;;;;;;27.30;16.40;;;;;;;10.44;86.30;99402.07;108021;1277;22004;-67
2023/02/25 05:44:16;;;;;;;25.70;15.50;;;;;;;10.43;86.36;99398.59;107900;1289;21992;-60
2023/02/25 05:46:43;;;;;;;27.50;15.90;;;;;;;10.41;86.38;99393.55;107870;1289;22000;-67
2023/02/25 05:49:09;;;;;;;24.30;15.00;;;;;;;10.32;87.78;99388.02;107821;1289;21993;-60
2023/02/25 05:51:35;;;;;;;26.40;15.30;;;;;;;10.30;88.05;99387.88;107973;1289;21998;-60
2023/02/25 05:54:01;;;;;;;23.90;15.10;;;;;;;10.32;87.40;99386.08;107845;1289;22034;-67
2023/02/25 05:56:27;;;;;;;27.60;15.70;;;;;;;10.40;86.36;99380.08;107886;1289;21998;-61
2023/02/25 05:58:53;;;;;;;28.30;14.70;;;;;;;10.43;86.08;99375.27;107805;1289;22877;-67
2023/02/25 06:01:23;;;;;;;28.90;16.30;;;;;;;10.41;86.63;99380.08;107875;1289;22005;-67
2023/02/25 06:03:49;;;;;;;27.60;14.80;;;;;;;10.40;87.05;99385.17;107957;1289;21997;-60
2023/02/25 06:06:16;;;;;;;26.40;15.00;;;;;;;10.41;88.48;99383.20;107857;1277;22026;-67
2023/02/25 06:08:43;;;;;;;24.60;15.60;;;;;;;10.49;88.93;99384.75;107978;1289;22457;-61
2023/02/25 06:11:13;;;;;;;26.60;15.80;;;;;;;10.58;89.12;99374.69;107994;1289;21990;-60
2023/02/25 06:13:42;;;;;;;25.90;15.80;;;;;;;10.65;89.33;99373.08;107987;1289;21997;-60
2023/02/25 06:16:08;;;;;;;28.30;16.30;;;;;;;10.77;88.90;99365.21;107992;1289;21979;-61
2023/02/25 06:18:36;;;;;;;26.90;16.00;;;;;;;10.85;88.50;99362.31;108027;1289;21999;-67
2023/02/25 06:21:04;;;;;;;27.30;16.60;;;;;;;10.87;90.16;99361.23;107877;1289;22001;-68
2023/02/25 06:23:31;;;;;;;26.90;16.50;;;;;;;11.08;88.81;99352.16;107870;1290;22031;-68
2023/02/25 06:26:02;;;;;;;32.50;16.80;;;;;;;11.04;91.39;99350.86;107827;1289;21994;-67
2023/02/25 06:28:28;;;;;;;26.90;15.70;;;;;;;11.17;91.18;99347.67;107813;1289;22038;-62
2023/02/25 06:30:54;;;;;;;29.50;17.50;;;;;;;11.40;89.81;99343.77;107868;1289;22059;-67
2023/02/25 06:33:20;;;;;;;24.50;16.20;;;;;;;11.57;88.70;99339.03;107846;1289;22013;-61
2023/02/25 06:35:52;;;;;;;30.30;16.60;;;;;;;11.63;89.35;99339.20;107808;1289;22273;-61
2023/02/25 06:38:18;;;;;;;27.20;17.20;;;;;;;11.61;88.92;99344.16;107894;1289;23084;-67
2023/02/25 06:40:45;;;;;;;25.40;15.90;;;;;;;11.67;87.69;99339.40;108027;1289;22004;-68
2023/02/25 06:43:14;;;;;;;24.60;17.50;;;;;;;11.78;86.32;99343.08;107865;1289;23628;-66
2023/02/25 06:45:41;;;;;;;29.00;18.30;;;;;;;11.63;86.46;99349.71;107900;1289;22000;-62
2023/02/25 06:48:07;;;;;;;25.40;16.80;;;;;;;11.53;86.67;99352.68;107873;1289;22374;-65
2023/02/25 06:50:33;;;;;;;27.20;16.10;;;;;;;11.69;85.89;99346.71;107867;1289;21992;-66
2023/02/25 06:52:58;;;;;;;24.20;16.90;;;;;;;11.69;87.15;99353.23;108020;1289;21954;-67
2023/02/25 06:55:24;;;;;;;28.60;17.50;;;;;;;11.82;86.30;99354.34;108024;1289;23785;-66
2023/02/25 06:57:53;;;;;;;28.30;17.40;;;;;;;11.87;86.12;99355.27;107983;1289;22002;-63
2023/02/25 07:00:22;;;;;;;26.30;16.70;;;;;;;11.93;85.69;99354.70;107974;1289;21994;-66
2023/02/25 07:02:47;;;;;;;29.90;18.40;;;;;;;12.02;85.90;99348.28;108016;1289;22087;-63
2023/02/25 07:05:13;;;;;;;26.10;16.70;;;;;;;12.20;85.33;99343.42;107852;1289;22523;-67
2023/02/25 07:07:40;;;;;;;25.50;16.40;;;;;;;12.26;84.51;99340.23;107898;1289;22001;-63
2023/02/25 07:10:07;;;;;;;24.20;16.40;;;;;;;12.32;83.35;99330.52;107956;1289;22054;-67
2023/02/25 07:12:36;;;;;;;;;;;;;;;12.47;82.60;99318.34;107264;1289;1002572;-63
2023/02/25 07:15:03;;;;;;;27.30;18.10;;;;;;;12.43;82.36;99316.89;107966;1289;21995;-63
2023/02/25 07:17:29;;;;;;;24.50;16.50;;;;;;;12.50;81.85;99312.24;108019;1289;22002;-66
2023/02/25 07:19:55;;;;;;;26.70;17.10;;;;;;;12.65;81.69;99309.58;107956;1289;21995;-63
2023/02/25 07:22:20;;;;;;;25.30;16.20;;;;;;;12.63;80.95;99305.80;107813;1277;22003;-67
2023/02/25 07:24:46;;;;;;;30.10;18.50;;;;;;;12.66;81.03;99306.77;107815;1289;21995;-63
2023/02/25 07:27:12;;;;;;;26.70;16.50;;;;;;;12.73;81.08;99301.54;107992;1289;21989;-64
2023/02/25 07:29:39;;;;;;;23.10;15.70;;;;;;;12.81;80.99;99295.60;105784;1289;1007099;-67
2023/02/25 07:32:08;;;;;;;28.90;17.70;;;;;;;12.81;80.46;99293.83;107993;1289;23760;-63
2023/02/25 07:34:34;;;;;;;26.60;17.50;;;;;;;12.97;80.17;99285.30;107966;1289;21995;-63
2023/02/25 07:37:00;;;;;;;23.90;16.60;;;;;;;13.04;80.07;99285.91;107717;1289;22466;-66
2023/02/25 07:39:26;;;;;;;28.10;16.70;;;;;;;13.18;79.68;99278.14;107913;1275;21985;-66
2023/02/25 07:41:52;;;;;;;22.50;15.20;;;;;;;13.26;79.98;99272.70;107968;1289;22053;-63
2023/02/25 07:44:18;;;;;;;26.40;16.50;;;;;;;13.38;79.61;99269.90;108020;1289;22008;-63
2023/02/25 07:46:43;;;;;;;22.50;15.10;;;;;;;13.56;78.60;99275.73;107989;1289;22003;-64
2023/02/25 07:49:09;;;;;;;22.20;15.40;;;;;;;13.74;78.67;99271.45;107961;1289;21992;-66
2023/02/25 07:51:35;;;;;;;23.40;15.70;;;;;;;13.97;78.60;99269.55;107886;1289;22038;-63
2023/02/25 07:54:01;;;;;;;23.80;15.80;;;;;;;14.24;78.94;99274.20;107899;1289;21986;-67
2023/02/25 07:56:28;;;;;;;23.80;14.20;;;;;;;14.40;77.79;99270.63;107850;1289;22044;-63
2023/02/25 07:58:54;;;;;;;21.90;13.90;;;;;;;14.58;76.12;99271.42;108014;1289;22001;-66
2023/02/25 08:01:31;;;;;;;21.50;15.00;;;;;;;14.78;75.01;99262.39;107967;1289;21992;-67
2023/02/25 08:03:59;;;;;;;26.00;15.10;;;;;;;15.01;74.56;99260.59;107871;1289;21998;-67
2023/02/25 08:06:26;;;;;;;22.30;14.30;;;;;;;15.15;73.35;99250.73;108019;1289;22003;-63
2023/02/25 08:08:54;;;;;;;22.40;14.20;;;;;;;15.16;71.40;99247.85;107980;1289;22027;-63
2023/02/25 08:11:20;;;;;;;21.90;15.30;;;;;;;15.18;70.97;99244.19;107836;1290;22020;-64
2023/02/25 08:13:46;;;;;;;22.30;14.80;;;;;;;15.30;70.46;99240.45;107880;1289;22031;-66
2023/02/25 08:16:14;;;;;;;20.30;14.00;;;;;;;15.45;69.55;99242.01;107841;1289;22000;-67
2023/02/25 08:18:41;;;;;;;29.00;17.30;;;;;;;15.36;67.13;99248.64;107889;1289;22035;-67
2023/02/25 08:21:13;;;;;;;21.00;13.80;;;;;;;15.64;68.41;99242.27;107815;1289;21992;-63
2023/02/25 08:23:38;;;;;;;;;;;;;;;15.86;67.52;99233.56;107992;1288;21978;-63
2023/02/25 08:26:05;;;;;;;20.60;14.50;;;;;;;15.89;65.87;99226.48;107973;1286;21992;-63
2023/02/25 08:28:31;;;;;;;23.80;15.10;;;;;;;16.19;66.22;99221.72;107998;1289;22475;-68
2023/02/25 08:30:57;;;;;;;19.90;14.40;;;;;;;16.31;64.93;99215.64;107984;1289;21992;-64
2023/02/25 08:33:24;;;;;;;22.10;14.90;;;;;;;16.47;65.34;99209.80;107889;1288;21997;-64
2023/02/25 08:35:52;;;;;;;21.50;14.30;;;;;;;16.53;63.53;99213.73;108035;1289;22036;-67
2023/02/25 08:38:19;;;;;;;18.50;13.60;;;;;;;16.50;62.15;99214.56;107984;1289;22753;-65
2023/02/25 08:40:46;;;;;;;20.50;14.90;;;;;;;16.64;62.65;99218.23;107914;1289;21985;-67
2023/02/25 08:43:13;;;;;;;22.40;14.70;;;;;;;16.70;62.11;99216.13;107823;1289;23631;-67
2023/02/25 08:45:40;;;;;;;19.90;13.80;;;;;;;16.74;61.38;99213.63;107872;1289;22008;-64
2023/02/25 08:48:08;;;;;;;26.40;15.40;;;;;;;16.73;60.37;99212.75;107879;1286;22036;-64
2023/02/25 08:50:34;;;;;;;22.00;15.00;;;;;;;16.72;59.77;99205.38;107990;1289;21996;-64
2023/02/25 08:53:00;;;;;;;22.60;15.10;;;;;;;16.70;59.44;99198.61;107840;1289;24282;-66
2023/02/25 08:55:27;;;;;;;23.30;15.50;;;;;;;16.90;60.59;99190.72;107845;1289;21991;-64
2023/02/25 08:57:53;;;;;;;19.90;13.20;;;;;;;17.05;59.28;99178.77;107868;1289;21996;-64
2023/02/25 09:00:20;;;;;;;21.30;14.10;;;;;;;17.01;58.30;99170.79;107963;1289;22002;-64
2023/02/25 09:02:48;;;;;;;23.50;15.50;;;;;;;17.03;58.19;99159.89;108016;1289;21993;-65
2023/02/25 09:05:13;;;;;;;23.50;15.50;;;;;;;17.08;58.52;99159.43;107972;1289;21975;-66
2023/02/25 09:07:39;;;;;;;21.40;14.50;;;;;;;17.20;57.99;99158.59;107994;1289;22162;-67
2023/02/25 09:10:06;;;;;;;21.00;14.10;;;;;;;17.25;57.66;99154.73;107987;1289;21999;-65
2023/02/25 09:12:32;;;;;;;21.40;14.90;;;;;;;17.36;57.45;99148.61;107196;1289;1002007;-66
2023/02/25 09:14:58;;;;;;;22.10;14.10;;;;;;;17.57;57.55;99143.21;108013;1289;21989;-66
2023/02/25 09:17:24;;;;;;;26.10;15.60;;;;;;;17.55;56.25;99137.30;107863;1289;22014;-65
2023/02/25 09:19:51;;;;;;;21.30;14.20;;;;;;;17.69;56.24;99137.92;107916;1289;23736;-67
2023/02/25 09:22:18;;;;;;;22.00;14.60;;;;;;;17.60;55.13;99137.55;108022;1289;22005;-66
2023/02/25 09:24:44;;;;;;;23.10;14.40;;;;;;;17.69;55.57;99132.05;107922;1289;23716;-65
2023/02/25 09:27:11;;;;;;;20.60;13.90;;;;;;;17.63;55.82;99130.27;108028;1289;22062;-65
2023/02/25 09:29:38;;;;;;;23.90;14.60;;;;;;;17.65;56.28;99129.98;107987;1288;21993;-66
2023/02/25 09:32:04;;;;;;;22.70;14.10;;;;;;;17.71;56.48;99131.00;108039;1289;22014;-66
2023/02/25 09:34:32;;;;;;;21.70;13.80;;;;;;;17.86;57.04;99127.47;107661;1289;22006;-66
2023/02/25 09:37:08;;;;;;;23.30;14.00;;;;;;;17.84;55.52;99127.39;107992;1289;22062;-65
2023/02/25 09:39:34;;;;;;;21.60;14.80;;;;;;;17.87;55.43;99120.30;107916;1289;21995;-66
2023/02/25 09:42:18;;;;;;;22.40;14.90;;;;;;;17.86;55.27;99110.39;108022;1289;23632;-65
2023/02/25 09:44:52;;;;;;;26.30;15.40;;;;;;;18.00;55.78;99100.84;107836;1289;21994;-66
2023/02/25 09:47:27;;;;;;;21.00;12.90;;;;;;;18.12;55.74;99095.73;107917;1289;22004;-65
2023/02/25 09:49:55;;;;;;;21.30;14.10;;;;;;;18.16;55.38;99096.11;107885;1289;23069;-66
2023/02/25 09:52:27;;;;;;;22.20;14.00;;;;;;;18.26;55.02;99087.47;107869;1289;22006;-65
2023/02/25 09:55:14;;;;;;;20.90;14.20;;;;;;;18.32;54.69;99086.43;107923;1289;22049;-66
2023/02/25 09:57:40;;;;;;;19.70;14.40;;;;;;;18.24;53.84;99082.65;107992;1284;21996;-65
2023/02/25 10:00:17;;;;;;;23.10;14.00;;;;;;;18.29;53.53;99075.96;107840;1289;21992;-65
2023/02/25 10:02:57;;;;;;;21.90;13.30;;;;;;;18.51;54.02;99058.88;107827;1289;21995;-67
2023/02/25 10:05:27;;;;;;;20.40;13.20;;;;;;;18.36;52.42;99056.83;107961;1289;23653;-66
2023/02/25 10:07:59;;;;;;;21.90;13.90;;;;;;;18.58;52.32;99055.22;107872;1289;22001;-65
2023/02/25 10:10:39;;;;;;;24.20;13.60;;;;;;;18.82;52.18;99052.55;108012;1289;21993;-65
2023/02/25 10:13:11;;;;;;;20.20;14.40;;;;;;;18.73;51.29;99056.38;108010;1289;21993;-65
2023/02/25 10:16:17;;;;;;;20.60;14.30;;;;;;;18.79;51.03;99048.89;107959;1289;22001;-66
2023/02/25 10:18:57;;;;;;;17.70;13.00;;;;;;;18.77;50.39;99052.90;107965;1289;21993;-66
2023/02/25 10:21:49;;;;;;;21.20;12.80;;;;;;;18.77;50.72;99058.76;107910;1289;22035;-66
2023/02/25 10:24:52;;;;;;;22.50;12.80;;;;;;;18.95;51.46;99047.09;107896;1283;23644;-65
2023/02/25 10:27:21;;;;;;;22.30;14.10;;;;;;;18.89;51.04;99042.30;107673;1289;22006;-65
2023/02/25 10:29:54;;;;;;;21.40;13.20;;;;;;;18.80;50.55;99034.94;107848;1289;21999;-67
2023/02/25 10:32:23;;;;;;;23.40;13.40;;;;;;;18.78;50.42;99028.13;107712;1284;22768;-66
2023/02/25 10:34:51;;;;;;;21.00;14.10;;;;;;;18.76;50.73;99027.59;107783;1289;22035;-65
2023/02/25 10:37:20;;;;;;;22.00;13.40;;;;;;;18.50;50.10;99021.84;107879;1289;22467;-65
2023/02/25 10:39:49;;;;;;;21.30;12.90;;;;;;;18.54;50.50;99011.59;107957;1289;22956;-65
2023/02/25 10:42:15;;;;;;;21.00;12.90;;;;;;;18.53;50.52;99009.55;107972;1289;21992;-66
2023/02/25 10:44:43;;;;;;;19.80;14.20;;;;;;;18.65;50.68;98997.22;107661;1286;23594;-65
2023/02/25 10:47:12;;;;;;;22.60;14.40;;;;;;;18.77;51.31;98983.94;107830;1289;21993;-66
2023/02/25 10:49:38;;;;;;;19.60;13.60;;;;;;;18.79;51.21;98974.92;107999;1289;23074;-66
2023/02/25 10:52:16;;;;;;;22.20;14.70;;;;;;;19.10;51.76;98962.84;107939;1289;22008;-66
2023/02/25 10:54:46;;;;;;;23.00;13.30;;;;;;;19.37;51.54;98955.98;107828;1289;21992;-67
2023/02/25 10:57:14;;;;;;;21.70;13.00;;;;;;;19.52;50.62;98946.39;107969;1289;22003;-65
2023/02/25 10:59:42;;;;;;;19.10;12.70;;;;;;;19.62;49.94;98944.63;108026;1289;22465;-66
2023/02/25 11:02:29;;;;;;;21.50;12.20;;;;;;;19.88;49.99;98940.79;107861;1289;21987;-66
2023/02/25 11:04:55;;;;;;;16.70;11.30;;;;;;;20.12;50.14;98939.94;107879;1289;23682;-65
2023/02/25 11:07:33;;;;;;;21.00;12.70;;;;;;;20.10;49.05;98941.30;107843;1285;22012;-65
2023/02/25 11:10:19;;;;;;;18.10;11.60;;;;;;;20.31;49.18;98926.20;107931;1286;23723;-66
2023/02/25 11:12:48;;;;;;;18.20;11.20;;;;;;;20.58;49.89;98915.08;107773;1286;21998;-65
2023/02/25 11:15:28;;;;;;;16.00;10.10;;;;;;;20.79;49.20;98908.48;107941;1286;21986;-65
2023/02/25 11:18:00;;;;;;;17.90;10.00;;;;;;;20.91;48.59;98902.89;107876;1289;22001;-66
2023/02/25 11:20:27;;;;;;;17.00;10.20;;;;;;;21.04;46.68;98899.91;107875;1280;23802;-65